North Bay Village, Florida
Current Conditions -  °F | °C
As of 9:53 PM on Wednesday 22 Oct 2014 (Local Time) from KMIA Reporting Station
Light Rain Light Rain  
Wind Chill: 75°   Ceiling: 13000
Heat Index: 75°   Visibility: 10mi
Dew Point: 73°   Wind: 0mph
Humidity: 94%   Direction: NA
Pressure: 29.95"   Gusts: NA
Location:  25.8619°N, 80.1259°W
Report Text: KMIA 230153Z 00000KT 10SM -RA FEW014 OVC130 24/23 A2995 RMK AO2 SLP140 P0000 T02390228
Loading
Personal Weather Stations






























Interactive Weather Map
Tropical Storm Tracking
New forecast layout! Learn more

10-Day Weather Forecast

Advertisements
Track Severe Weather on mobile